Pefferlaw, Canada
Current Conditions -  °F | °C
As of 11:00 PM on Thursday 30 Oct 2014 (Local Time) from CYKZ Reporting Station
Overcast Overcast  
Wind Chill: 41°   Ceiling: 5400
Heat Index: 41°   Visibility: 15mi
Dew Point: 37°   Wind: 0mph
Humidity: 87%   Direction: NA
Pressure: 30.02"   Gusts: NA
Location:  44.32°N, 79.2°W
Report Text: CYKZ 310300Z 00000KT 15SM OVC054 05/03 A3002 RMK SC8 SLP171
Loading
Personal Weather Stations






























Interactive Weather Map
Tropical Storm Tracking
New forecast layout! Learn more

10-Day Weather Forecast

Advertisements
Track Severe Weather on mobile